This is the latest recevied weather packets stored in our database for station/object N3LF. If no packets are shown the sender has not sent any weather packets the latest 10 day(s).
| Time | Temp. | Humidity | Pressure | Rain* | Wind** | Luminosity | Snow |
|---|---|---|---|---|---|---|---|
| 1777490787 | 18.33° C | 81% | 1017.1 hPa | 0 mm | - | 423 W/m² | - |
| 1777490485 | 17.78° C | 82% | 1017.1 hPa | 0 mm | - | 321 W/m² | - |
| 1777490181 | 17.78° C | 82% | 1017.1 hPa | 0 mm | - | 252 W/m² | - |
| 1777489878 | 18.33° C | 81% | 1017 hPa | 0 mm | - | 245 W/m² | - |
| 1777489576 | 18.33° C | 83% | 1017.1 hPa | 0 mm | - | 262 W/m² | - |
| 1777489272 | 18.33° C | 83% | 1017 hPa | 0 mm | - | 205 W/m² | - |
| 1777488969 | 18.33° C | 83% | 1016.9 hPa | 0 mm | - | 226 W/m² | - |
| 1777488666 | 18.33° C | 82% | 1016.7 hPa | 0 mm | - | 338 W/m² | - |
| 1777488364 | 18.33° C | 84% | 1016.9 hPa | 0 mm | - | 220 W/m² | - |
| 1777488062 | 18.33° C | 83% | 1016.8 hPa | 0 mm | - | 185 W/m² | - |
| 1777487759 | 18.89° C | 82% | 1016.7 hPa | 0 mm | - | 271 W/m² | - |
| 1777487457 | 18.89° C | 83% | 1016.7 hPa | 0 mm | - | 211 W/m² | - |
| 1777487154 | 19.44° C | 81% | 1016.7 hPa | 0 mm | - | 280 W/m² | - |
| 1777486850 | 18.89° C | 82% | 1016.7 hPa | 0 mm | - | 569 W/m² | - |
| 1777486547 | 18.89° C | 83% | 1016.8 hPa | 0 mm | - | 676 W/m² | - |
| 1777486245 | 17.78° C | 85% | 1016.9 hPa | 0 mm | - | 368 W/m² | - |
| 1777485942 | 17.78° C | 86% | 1016.8 hPa | 0 mm | - | 196 W/m² | - |
| 1777485638 | 18.33° C | 85% | 1016.8 hPa | 0 mm | - | 169 W/m² | - |
| 1777485333 | 19.44° C | 82% | 1016.8 hPa | 0 mm | - | 228 W/m² | - |
| 1777485030 | 18.89° C | 84% | 1016.7 hPa | 0 mm | - | 402 W/m² | - |
| 1777484727 | 18.89° C | 83% | 1016.5 hPa | 0 mm | - | 242 W/m² | - |
| 1777484423 | 19.44° C | 82% | 1016.6 hPa | 0 mm | - | 379 W/m² | - |
| 1777484120 | 18.89° C | 83% | 1016.7 hPa | 0 mm | - | 619 W/m² | - |
| 1777483816 | 18.89° C | 84% | 1016.7 hPa | 0 mm | - | 983 W/m² | - |
| 1777483514 | 18.89° C | 84% | 1016.9 hPa | 0 mm | - | 384 W/m² | - |
* Rain latest hour (hover to see other rain measurements)
** Current wind speed in m/s (hover to see current wind gust speed)